Fuding, China
Current Conditions -  °F | °C
As of 5:00 AM on Saturday 20 Dec 2014 (Local Time) from ZSFZ Reporting Station
Clear Clear  
Wind Chill: 46°   Ceiling: Unl
Heat Index: 48°   Visibility: 6mi
Dew Point: 41°   Wind: 4mph
Humidity: 76%   Direction: 320°NW
Pressure: 30.18"   Gusts: NA
Location:  27.33°N, 120.2°E
Report Text: ZSFZ 192100Z 32002MPS CAVOK 09/05 Q1022 NOSIG
Loading
Personal Weather Stations






























Interactive Weather Map New forecast layout! Learn more

10-Day Weather Forecast

Advertisements
Track Severe Weather on mobile